Time;durP1;ratioP1;P1;durP2;ratioP2;P2;SDS_P1;SDS_P2;PMS_P1;PMS_P2;Temp;Humidity;BMP_temperature;BMP_pressure;BME280_temperature;BME280_humidity;BME280_pressure;Samples;Min_cycle;Max_cycle;Signal;HPM_P1;HPM_P2
2023/06/27 00:02:55;;;;;;;3.37;1.70;;;;;;;;;;10268160;28;20063;-81
2023/06/27 00:07:56;;;;;;;3.15;1.50;;;;;;;;;;10280923;28;20149;-76
2023/06/27 00:12:56;;;;;;;5.37;1.80;;;;;;;;;;10268391;28;20042;-75
2023/06/27 00:17:57;;;;;;;2.40;1.70;;;;;;;;;;10274794;28;20133;-74
2023/06/27 00:23:16;;;;;;;3.70;2.00;;;;;;;;;;10281997;28;20544;-74
2023/06/27 00:28:16;;;;;;;10.65;3.22;;;;;;;;;;10277319;28;20123;-74
2023/06/27 00:33:16;;;;;;;2.90;1.90;;;;;;;;;;10274298;28;20051;-74
2023/06/27 00:38:17;;;;;;;3.08;1.90;;;;;;;;;;10269137;28;20278;-74
2023/06/27 00:43:17;;;;;;;4.63;2.00;;;;;;;;;;10273539;28;20046;-73
2023/06/27 00:48:18;;;;;;;4.40;1.80;;;;;;;;;;10275781;28;20145;-73
2023/06/27 00:53:19;;;;;;;3.22;2.25;;;;;;;;;;10276056;28;20035;-75
2023/06/27 00:58:20;;;;;;;2.22;2.00;;;;;;;;;;10277166;28;20254;-74
2023/06/27 01:03:20;;;;;;;3.88;2.03;;;;;;;;;;10275090;28;20157;-75
2023/06/27 01:08:34;;;;;;;3.10;1.98;;;;;;;;;;10278815;28;20051;-76
2023/06/27 01:13:40;;;;;;;4.65;1.85;;;;;;;;;;10276667;28;21172;-77
2023/06/27 01:18:41;;;;;;;3.60;1.80;;;;;;;;;;10277862;28;20054;-74
2023/06/27 01:23:41;;;;;;;3.17;2.00;;;;;;;;;;10277648;28;20051;-76
2023/06/27 01:28:42;;;;;;;3.07;2.10;;;;;;;;;;10272237;28;20351;-76
2023/06/27 01:33:46;;;;;;;2.78;1.98;;;;;;;;;;10275386;28;20066;-75
2023/06/27 01:38:53;;;;;;;3.70;1.80;;;;;;;;;;10278856;28;20046;-75
2023/06/27 01:43:57;;;;;;;4.22;2.05;;;;;;;;;;10276248;28;20042;-75
2023/06/27 01:48:58;;;;;;;4.95;1.83;;;;;;;;;;10282175;28;20047;-75
2023/06/27 01:53:59;;;;;;;2.70;1.60;;;;;;;;;;10286058;28;20070;-74
2023/06/27 01:58:59;;;;;;;2.38;1.83;;;;;;;;;;10267014;28;20050;-73
2023/06/27 02:04:03;;;;;;;2.42;1.65;;;;;;;;;;10288502;28;20050;-77
2023/06/27 02:09:04;;;;;;;3.33;1.70;;;;;;;;;;10271352;28;20550;-74
2023/06/27 02:14:06;;;;;;;2.00;1.50;;;;;;;;;;10270593;28;20795;-74
2023/06/27 02:19:06;;;;;;;3.47;1.70;;;;;;;;;;10279312;28;20081;-74
2023/06/27 02:24:07;;;;;;;2.00;1.73;;;;;;;;;;10272178;28;20455;-74
2023/06/27 02:29:07;;;;;;;3.53;1.58;;;;;;;;;;10279132;28;20308;-75
2023/06/27 02:34:07;;;;;;;2.70;1.60;;;;;;;;;;10283041;28;20057;-75
2023/06/27 02:39:08;;;;;;;2.75;2.05;;;;;;;;;;10286503;28;20047;-74
2023/06/27 02:44:08;;;;;;;3.03;2.00;;;;;;;;;;10265201;28;20042;-75
2023/06/27 02:49:09;;;;;;;2.60;1.90;;;;;;;;;;10274588;28;20058;-76
2023/06/27 02:54:09;;;;;;;2.90;1.80;;;;;;;;;;10273357;28;21110;-75
2023/06/27 02:59:10;;;;;;;2.45;2.08;;;;;;;;;;10262582;28;20057;-73
2023/06/27 03:04:10;;;;;;;2.63;1.80;;;;;;;;;;10261748;28;20519;-74
2023/06/27 03:09:11;;;;;;;2.95;1.85;;;;;;;;;;10280455;28;20049;-73
2023/06/27 03:14:12;;;;;;;2.30;1.63;;;;;;;;;;10259129;28;20788;-74
2023/06/27 03:19:12;;;;;;;2.00;1.80;;;;;;;;;;10268801;28;20058;-73
2023/06/27 03:24:13;;;;;;;2.80;1.70;;;;;;;;;;10261791;28;20062;-73
2023/06/27 03:29:18;;;;;;;2.60;1.83;;;;;;;;;;10264885;28;20043;-74
2023/06/27 03:34:21;;;;;;;3.03;1.80;;;;;;;;;;10261956;28;20546;-73
2023/06/27 03:39:21;;;;;;;2.83;2.03;;;;;;;;;;10269397;28;20078;-74
2023/06/27 03:44:22;;;;;;;2.38;1.80;;;;;;;;;;10259727;28;20051;-74
2023/06/27 03:49:23;;;;;;;2.20;2.00;;;;;;;;;;10260840;28;20578;-75
2023/06/27 03:54:23;;;;;;;5.50;2.53;;;;;;;;;;10264483;28;20050;-73
2023/06/27 03:59:24;;;;;;;3.10;2.00;;;;;;;;;;10279331;28;20038;-74
2023/06/27 04:04:26;;;;;;;3.17;2.10;;;;;;;;;;10261958;28;20302;-74
2023/06/27 04:09:27;;;;;;;3.50;2.15;;;;;;;;;;10275593;28;20398;-74
2023/06/27 04:14:28;;;;;;;2.53;1.97;;;;;;;;;;10271848;28;20046;-74
2023/06/27 04:19:28;;;;;;;3.00;2.00;;;;;;;;;;10260754;28;20050;-73
2023/06/27 04:24:29;;;;;;;4.43;2.10;;;;;;;;;;10261286;28;20065;-74
2023/06/27 04:29:30;;;;;;;2.40;1.80;;;;;;;;;;10277115;28;20069;-76
2023/06/27 04:34:30;;;;;;;2.70;2.00;;;;;;;;;;10276781;28;20552;-74
2023/06/27 04:39:31;;;;;;;3.97;2.05;;;;;;;;;;10272541;28;20113;-79
2023/06/27 04:44:31;;;;;;;5.10;2.20;;;;;;;;;;10300355;28;20384;-79
2023/06/27 04:49:31;;;;;;;3.67;2.38;;;;;;;;;;10278078;28;20043;-79
2023/06/27 04:54:32;;;;;;;3.50;1.80;;;;;;;;;;10278176;28;20055;-77
2023/06/27 04:59:32;;;;;;;6.00;2.20;;;;;;;;;;10274444;28;20611;-78
2023/06/27 05:04:33;;;;;;;2.90;1.80;;;;;;;;;;10270108;28;20074;-74
2023/06/27 05:09:33;;;;;;;2.80;1.70;;;;;;;;;;10304276;28;20301;-85
2023/06/27 05:14:33;;;;;;;1.97;1.73;;;;;;;;;;10328510;28;20491;-89
2023/06/27 05:19:34;;;;;;;4.63;2.10;;;;;;;;;;10417273;23;20307;-88
2023/06/27 05:24:37;;;;;;;2.88;1.80;;;;;;;;;;10317673;28;21306;-88
2023/06/27 05:29:38;;;;;;;4.85;2.13;;;;;;;;;;10345929;28;20056;-86
2023/06/27 05:34:39;;;;;;;3.00;2.07;;;;;;;;;;10344301;28;20049;-85
2023/06/27 05:39:42;;;;;;;3.47;2.27;;;;;;;;;;10339153;28;20046;-89
2023/06/27 05:44:46;;;;;;;5.82;1.90;;;;;;;;;;10348276;28;20389;-87
2023/06/27 05:49:47;;;;;;;3.58;1.73;;;;;;;;;;10311119;28;20085;-88
2023/06/27 05:54:50;;;;;;;4.15;2.40;;;;;;;;;;10328367;28;20050;-87
2023/06/27 05:59:52;;;;;;;3.58;1.70;;;;;;;;;;10294644;28;20038;-88
2023/06/27 06:04:54;;;;;;;3.25;1.80;;;;;;;;;;10343525;28;20038;-83
2023/06/27 06:09:55;;;;;;;2.50;1.65;;;;;;;;;;10343067;28;20026;-86
2023/06/27 06:14:58;;;;;;;;;;;;;;;;;;10370984;28;20059;-87
2023/06/27 06:20:03;;;;;;;;;;;;;;;;;;10282301;28;19973;-88
2023/06/27 06:25:05;;;;;;;3.70;1.95;;;;;;;;;;10305133;28;20306;-91
2023/06/27 06:30:06;;;;;;;2.30;1.83;;;;;;;;;;10275556;28;20102;-83
2023/06/27 06:35:06;;;;;;;3.75;1.75;;;;;;;;;;10307271;28;20127;-90
2023/06/27 06:40:08;;;;;;;1.95;1.80;;;;;;;;;;10300857;28;20720;-89
2023/06/27 06:50:24;;;;;;;4.35;1.92;;;;;;;;;;10335506;28;20114;-88
2023/06/27 06:55:25;;;;;;;4.10;1.95;;;;;;;;;;10350030;28;20146;-89
2023/06/27 07:00:33;;;;;;;3.97;2.10;;;;;;;;;;10344349;28;20042;-88
2023/06/27 07:05:42;;;;;;;2.70;1.70;;;;;;;;;;10412835;23;20101;-88
2023/06/27 07:10:46;;;;;;;2.53;1.52;;;;;;;;;;10358266;28;20046;-86
2023/06/27 07:15:47;;;;;;;2.83;1.70;;;;;;;;;;10375232;28;20046;-89
2023/06/27 07:20:49;;;;;;;2.20;1.50;;;;;;;;;;10665884;23;20043;-87
2023/06/27 07:25:49;;;;;;;3.15;1.67;;;;;;;;;;10805856;23;20110;-88
2023/06/27 07:30:54;;;;;;;2.80;1.77;;;;;;;;;;10449318;23;20042;-89
2023/06/27 07:35:55;;;;;;;3.55;1.80;;;;;;;;;;10429609;23;20321;-92
2023/06/27 07:40:59;;;;;;;3.78;1.80;;;;;;;;;;10393855;28;20109;-89
2023/06/27 07:46:00;;;;;;;3.25;1.50;;;;;;;;;;10440006;23;20044;-87
2023/06/27 07:51:00;;;;;;;1.95;1.40;;;;;;;;;;10375820;28;20057;-88
2023/06/27 07:56:03;;;;;;;2.83;1.40;;;;;;;;;;10382067;28;20489;-89
2023/06/27 08:01:03;;;;;;;1.95;1.50;;;;;;;;;;10373341;28;20272;-86
2023/06/27 08:06:04;;;;;;;3.00;1.40;;;;;;;;;;10408316;28;20038;-88
2023/06/27 08:16:29;;;;;;;2.28;1.50;;;;;;;;;;10521864;23;19936;-90
2023/06/27 08:21:29;;;;;;;2.80;1.95;;;;;;;;;;10380426;28;20034;-88
2023/06/27 08:26:30;;;;;;;4.70;1.75;;;;;;;;;;10370941;28;20073;-88
2023/06/27 08:31:32;;;;;;;2.30;1.53;;;;;;;;;;10378144;28;20038;-89
2023/06/27 08:36:32;;;;;;;6.88;1.63;;;;;;;;;;10384760;28;21114;-87
2023/06/27 08:41:34;;;;;;;3.15;1.65;;;;;;;;;;10366234;28;20053;-85
2023/06/27 08:46:42;;;;;;;2.72;1.42;;;;;;;;;;10377332;28;20108;-88
2023/06/27 08:51:46;;;;;;;3.15;1.50;;;;;;;;;;10379056;28;20123;-88
2023/06/27 08:56:51;;;;;;;3.63;1.75;;;;;;;;;;10392600;23;20077;-88
2023/06/27 09:02:18;;;;;;;4.22;1.67;;;;;;;;;;10379228;28;20030;-91
2023/06/27 09:07:23;;;;;;;3.13;1.40;;;;;;;;;;10356850;28;20101;-88
2023/06/27 09:12:26;;;;;;;2.92;2.05;;;;;;;;;;10356786;28;20069;-90
2023/06/27 09:17:31;;;;;;;3.47;1.30;;;;;;;;;;10326040;28;20070;-90
2023/06/27 09:22:35;;;;;;;3.33;1.40;;;;;;;;;;10344847;28;20679;-88
2023/06/27 09:27:36;;;;;;;2.20;1.40;;;;;;;;;;10379285;28;20042;-89
2023/06/27 09:33:11;;;;;;;1.77;1.45;;;;;;;;;;10390517;28;20042;-85
2023/06/27 09:38:13;;;;;;;2.10;1.30;;;;;;;;;;10381252;28;20030;-88
2023/06/27 09:43:15;;;;;;;2.65;1.40;;;;;;;;;;10405187;28;20033;-91
2023/06/27 09:48:25;;;;;;;3.13;1.63;;;;;;;;;;10571530;23;20061;-91
2023/06/27 09:53:30;;;;;;;2.83;1.60;;;;;;;;;;10402007;28;20060;-85
2023/06/27 09:58:31;;;;;;;2.13;1.40;;;;;;;;;;10410740;28;20054;-84
2023/06/27 10:03:35;;;;;;;1.70;1.30;;;;;;;;;;10399541;28;20046;-86
2023/06/27 10:08:37;;;;;;;2.05;1.42;;;;;;;;;;10379038;28;20076;-87
2023/06/27 10:13:38;;;;;;;3.55;1.50;;;;;;;;;;10370843;28;20061;-85
2023/06/27 10:18:38;;;;;;;2.95;1.20;;;;;;;;;;10358076;28;20050;-88
2023/06/27 10:23:39;;;;;;;3.70;1.50;;;;;;;;;;10368825;28;20045;-88
2023/06/27 10:28:41;;;;;;;2.30;1.48;;;;;;;;;;10354893;28;20046;-85
2023/06/27 10:33:42;;;;;;;2.30;1.33;;;;;;;;;;10301810;28;20363;-83
2023/06/27 10:38:46;;;;;;;3.57;1.90;;;;;;;;;;10319907;28;20058;-83
2023/06/27 10:43:49;;;;;;;1.70;1.50;;;;;;;;;;10329204;28;20054;-86
2023/06/27 10:48:53;;;;;;;4.30;1.52;;;;;;;;;;10358041;28;20208;-84
2023/06/27 10:54:09;;;;;;;3.45;1.70;;;;;;;;;;10395414;28;20060;-88
2023/06/27 10:59:10;;;;;;;2.33;1.50;;;;;;;;;;10420439;23;20042;-88
2023/06/27 11:04:27;;;;;;;2.60;1.60;;;;;;;;;;10384881;28;20065;-85
2023/06/27 11:09:31;;;;;;;3.08;1.70;;;;;;;;;;10368618;28;20645;-87
2023/06/27 11:14:38;;;;;;;3.97;1.80;;;;;;;;;;10361111;28;20063;-87
2023/06/27 11:19:42;;;;;;;2.45;1.40;;;;;;;;;;10401698;28;20062;-88
2023/06/27 11:24:43;;;;;;;4.28;1.80;;;;;;;;;;10392428;28;20046;-88
2023/06/27 11:30:01;;;;;;;3.72;1.48;;;;;;;;;;10406626;28;20048;-87
2023/06/27 11:35:08;;;;;;;3.72;2.40;;;;;;;;;;10407244;22;20499;-83
2023/06/27 11:40:15;;;;;;;2.53;1.70;;;;;;;;;;10377372;28;20061;-85
2023/06/27 11:45:15;;;;;;;2.45;1.40;;;;;;;;;;10360943;28;20205;-89
2023/06/27 11:50:16;;;;;;;1.83;1.40;;;;;;;;;;10378766;28;20080;-86
2023/06/27 11:55:18;;;;;;;3.73;1.40;;;;;;;;;;10387809;28;20057;-85
2023/06/27 12:00:28;;;;;;;2.88;1.50;;;;;;;;;;10341643;28;20094;-85
2023/06/27 12:05:30;;;;;;;4.00;1.73;;;;;;;;;;10338628;28;20650;-86
2023/06/27 12:10:33;;;;;;;3.17;1.42;;;;;;;;;;10313384;28;20050;-79
2023/06/27 12:15:43;;;;;;;2.85;1.60;;;;;;;;;;10305233;28;20570;-79
2023/06/27 12:20:44;;;;;;;2.25;1.58;;;;;;;;;;10289472;28;20050;-81
2023/06/27 12:25:45;;;;;;;3.33;1.40;;;;;;;;;;10291624;28;20049;-80
2023/06/27 12:30:45;;;;;;;3.47;1.95;;;;;;;;;;10308679;28;20053;-80
2023/06/27 12:35:45;;;;;;;2.03;1.40;;;;;;;;;;10306221;28;20346;-78
2023/06/27 12:40:46;;;;;;;2.63;1.60;;;;;;;;;;10291615;28;20278;-78
2023/06/27 12:46:00;;;;;;;2.67;1.50;;;;;;;;;;10308491;28;20273;-79
2023/06/27 12:51:02;;;;;;;4.55;1.60;;;;;;;;;;10311506;28;20042;-80
2023/06/27 12:56:03;;;;;;;2.03;1.60;;;;;;;;;;10308497;28;20038;-78
2023/06/27 13:01:04;;;;;;;3.28;1.77;;;;;;;;;;10304341;28;20042;-81
2023/06/27 13:06:04;;;;;;;3.25;1.40;;;;;;;;;;10291479;28;20618;-84
2023/06/27 13:11:05;;;;;;;3.27;1.70;;;;;;;;;;10300289;28;20038;-79
2023/06/27 13:16:05;;;;;;;1.73;1.30;;;;;;;;;;10294361;28;20053;-80
2023/06/27 13:21:06;;;;;;;2.17;1.40;;;;;;;;;;10312736;28;20280;-82
2023/06/27 13:26:06;;;;;;;2.30;1.40;;;;;;;;;;10314465;28;20310;-84
2023/06/27 13:31:06;;;;;;;2.33;1.63;;;;;;;;;;10321789;28;20046;-82
2023/06/27 13:36:07;;;;;;;4.00;1.63;;;;;;;;;;10368147;28;20074;-83
2023/06/27 13:41:07;;;;;;;2.07;1.40;;;;;;;;;;10353952;28;20294;-81
2023/06/27 13:46:07;;;;;;;3.43;1.87;;;;;;;;;;10319507;28;20285;-78
2023/06/27 13:51:08;;;;;;;3.40;1.70;;;;;;;;;;10323807;28;20044;-79
2023/06/27 13:56:09;;;;;;;1.75;1.50;;;;;;;;;;10319245;28;20057;-81
2023/06/27 14:01:09;;;;;;;2.15;1.48;;;;;;;;;;10298418;28;20049;-82
2023/06/27 14:06:10;;;;;;;2.10;1.40;;;;;;;;;;10321584;28;20038;-80
2023/06/27 14:11:12;;;;;;;3.20;1.60;;;;;;;;;;10321647;28;20042;-78
2023/06/27 14:16:13;;;;;;;2.33;1.60;;;;;;;;;;10322754;28;20309;-80
2023/06/27 14:21:15;;;;;;;2.83;1.80;;;;;;;;;;10292584;28;20042;-79
2023/06/27 14:26:15;;;;;;;3.03;1.75;;;;;;;;;;10330501;28;20242;-84
2023/06/27 14:31:15;;;;;;;2.03;1.55;;;;;;;;;;10295194;28;20050;-82
2023/06/27 14:36:16;;;;;;;2.60;1.60;;;;;;;;;;10311245;28;20097;-83
2023/06/27 14:41:16;;;;;;;3.28;1.58;;;;;;;;;;10328922;28;20058;-77
2023/06/27 14:46:16;;;;;;;9.57;6.77;;;;;;;;;;10326060;28;20425;-88
2023/06/27 14:51:17;;;;;;;2.47;1.70;;;;;;;;;;10332454;28;20470;-82
2023/06/27 14:56:18;;;;;;;3.30;1.73;;;;;;;;;;10337459;28;20053;-82
2023/06/27 15:01:24;;;;;;;2.20;1.73;;;;;;;;;;10305610;28;20137;-88
2023/06/27 15:06:24;;;;;;;3.47;1.70;;;;;;;;;;10293642;28;20046;-82
2023/06/27 15:11:24;;;;;;;1.50;1.30;;;;;;;;;;10310702;28;20034;-85
2023/06/27 15:16:25;;;;;;;2.13;1.40;;;;;;;;;;10292709;28;20507;-84
2023/06/27 15:21:25;;;;;;;5.53;2.00;;;;;;;;;;10297587;28;20052;-81
2023/06/27 15:26:26;;;;;;;3.33;2.07;;;;;;;;;;10290543;28;20135;-81
2023/06/27 15:31:28;;;;;;;4.00;2.00;;;;;;;;;;10240351;28;20126;-79
2023/06/27 15:36:30;;;;;;;2.40;1.75;;;;;;;;;;10263915;28;20502;-75
2023/06/27 15:41:31;;;;;;;3.47;1.67;;;;;;;;;;10270582;28;20555;-75
2023/06/27 15:46:31;;;;;;;2.17;1.80;;;;;;;;;;10274628;28;20057;-81
2023/06/27 15:51:31;;;;;;;2.27;1.70;;;;;;;;;;10270738;28;20478;-77
2023/06/27 15:56:32;;;;;;;1.77;1.63;;;;;;;;;;10282064;28;20054;-80
2023/06/27 16:01:32;;;;;;;2.47;2.15;;;;;;;;;;10257363;28;20051;-78
2023/06/27 16:06:35;;;;;;;2.88;1.77;;;;;;;;;;10279231;28;20053;-76
2023/06/27 16:11:35;;;;;;;3.60;2.10;;;;;;;;;;10262315;28;20503;-79
2023/06/27 16:16:36;;;;;;;4.95;1.88;;;;;;;;;;10270238;28;20059;-80
2023/06/27 16:21:38;;;;;;;3.87;1.97;;;;;;;;;;10271200;28;20762;-77
2023/06/27 16:26:39;;;;;;;2.25;1.90;;;;;;;;;;10269761;28;20047;-80
2023/06/27 16:31:39;;;;;;;3.93;2.03;;;;;;;;;;10276865;28;20047;-76
2023/06/27 16:36:39;;;;;;;3.63;1.90;;;;;;;;;;10277893;28;20047;-81
2023/06/27 16:41:41;;;;;;;2.37;1.70;;;;;;;;;;10287916;28;20553;-80
2023/06/27 16:46:42;;;;;;;2.88;2.00;;;;;;;;;;10270343;28;20105;-79
2023/06/27 16:51:43;;;;;;;2.75;1.95;;;;;;;;;;10257055;28;20117;-78
2023/06/27 16:56:43;;;;;;;2.55;1.73;;;;;;;;;;10269407;28;20055;-80
2023/06/27 17:01:43;;;;;;;3.30;2.30;;;;;;;;;;10280287;28;20051;-81
2023/06/27 17:06:44;;;;;;;4.17;1.93;;;;;;;;;;10277451;28;20229;-83
2023/06/27 17:11:44;;;;;;;4.30;2.17;;;;;;;;;;10280572;28;20035;-80
2023/06/27 17:16:44;;;;;;;2.23;1.80;;;;;;;;;;10282759;28;20577;-82
2023/06/27 17:21:46;;;;;;;2.37;1.80;;;;;;;;;;10314128;28;20050;-79
2023/06/27 17:26:46;;;;;;;3.30;1.98;;;;;;;;;;10330141;28;20278;-80
2023/06/27 17:31:48;;;;;;;2.87;1.80;;;;;;;;;;10326855;28;20901;-81
2023/06/27 17:36:51;;;;;;;3.35;1.92;;;;;;;;;;10334973;28;20061;-84
2023/06/27 17:41:51;;;;;;;2.87;1.83;;;;;;;;;;10347322;28;20457;-80
2023/06/27 17:46:52;;;;;;;3.05;1.85;;;;;;;;;;10329683;28;20051;-80
2023/06/27 17:51:56;;;;;;;3.35;1.70;;;;;;;;;;10326002;28;20039;-81
2023/06/27 17:56:56;;;;;;;3.42;2.03;;;;;;;;;;10325652;28;20058;-78
2023/06/27 18:01:57;;;;;;;2.63;1.70;;;;;;;;;;10315639;28;20043;-79
2023/06/27 18:06:57;;;;;;;5.20;2.00;;;;;;;;;;10317871;28;20042;-79
2023/06/27 18:11:57;;;;;;;2.78;1.85;;;;;;;;;;10310728;28;20510;-79
2023/06/27 18:16:58;;;;;;;2.50;1.77;;;;;;;;;;10308552;28;20046;-78
2023/06/27 18:21:58;;;;;;;2.73;1.93;;;;;;;;;;10315154;28;20092;-79
2023/06/27 18:26:58;;;;;;;3.40;1.90;;;;;;;;;;10309688;28;20049;-80
2023/06/27 18:32:00;;;;;;;2.27;1.83;;;;;;;;;;10318569;28;20058;-83
2023/06/27 18:37:00;;;;;;;2.33;1.73;;;;;;;;;;10344455;28;20309;-83
2023/06/27 18:42:02;;;;;;;2.25;1.60;;;;;;;;;;10359136;28;20281;-83
2023/06/27 18:47:03;;;;;;;1.98;1.70;;;;;;;;;;10327471;28;20042;-77
2023/06/27 18:52:04;;;;;;;3.37;2.13;;;;;;;;;;10313581;28;20051;-81
2023/06/27 18:57:06;;;;;;;2.60;2.20;;;;;;;;;;10311927;28;20051;-79
2023/06/27 19:02:10;;;;;;;2.75;1.70;;;;;;;;;;10313451;28;20741;-79
2023/06/27 19:07:11;;;;;;;3.38;1.90;;;;;;;;;;10313314;28;20597;-81
2023/06/27 19:12:11;;;;;;;3.73;2.93;;;;;;;;;;10305100;28;20066;-82
2023/06/27 19:17:12;;;;;;;3.45;2.00;;;;;;;;;;10307874;28;20601;-80
2023/06/27 19:22:12;;;;;;;2.40;1.90;;;;;;;;;;10317240;28;20050;-78
2023/06/27 19:27:16;;;;;;;3.72;2.20;;;;;;;;;;10316906;28;20057;-82
2023/06/27 19:32:20;;;;;;;3.30;2.00;;;;;;;;;;10314046;28;20054;-84
2023/06/27 19:37:29;;;;;;;;;;;;;;;;;;10350266;28;20320;-84
2023/06/27 19:42:30;;;;;;;3.65;2.47;;;;;;;;;;10378305;28;19956;-80
2023/06/27 19:47:31;;;;;;;2.75;1.80;;;;;;;;;;10344585;28;20084;-80
2023/06/27 19:52:31;;;;;;;2.93;1.90;;;;;;;;;;10304750;28;20046;-80
2023/06/27 19:57:34;;;;;;;2.53;1.90;;;;;;;;;;10311928;28;20317;-81
2023/06/27 20:02:34;;;;;;;2.30;2.10;;;;;;;;;;10310164;28;20053;-77
2023/06/27 20:07:35;;;;;;;3.63;2.17;;;;;;;;;;10299709;28;20169;-75
2023/06/27 20:12:35;;;;;;;2.67;2.37;;;;;;;;;;10302447;28;20298;-75
2023/06/27 20:17:35;;;;;;;4.13;2.07;;;;;;;;;;10299411;28;21163;-73
2023/06/27 20:22:36;;;;;;;2.55;2.17;;;;;;;;;;10296515;28;20333;-73
2023/06/27 20:27:36;;;;;;;2.95;1.80;;;;;;;;;;10299063;28;20112;-73
2023/06/27 20:32:38;;;;;;;3.00;1.93;;;;;;;;;;10309347;28;20051;-71
2023/06/27 20:37:38;;;;;;;4.50;2.27;;;;;;;;;;10312313;28;20482;-73
2023/06/27 20:42:38;;;;;;;3.20;2.00;;;;;;;;;;10311683;28;20050;-74
2023/06/27 20:47:39;;;;;;;3.33;2.38;;;;;;;;;;10307764;28;20308;-74
2023/06/27 20:52:39;;;;;;;3.10;2.17;;;;;;;;;;10311773;28;20148;-73
2023/06/27 20:57:39;;;;;;;2.83;2.13;;;;;;;;;;10309560;28;20112;-73
2023/06/27 21:02:40;;;;;;;3.92;1.77;;;;;;;;;;10310477;28;20103;-72
2023/06/27 21:07:40;;;;;;;2.10;1.80;;;;;;;;;;10314339;28;20128;-74
2023/06/27 21:12:40;;;;;;;2.67;2.00;;;;;;;;;;10311735;28;20320;-72
2023/06/27 21:17:41;;;;;;;4.30;2.27;;;;;;;;;;10309817;28;20093;-72
2023/06/27 21:22:41;;;;;;;4.37;2.40;;;;;;;;;;10306404;28;20297;-72
2023/06/27 21:27:41;;;;;;;2.70;2.10;;;;;;;;;;10315880;28;20038;-73
2023/06/27 21:32:42;;;;;;;3.23;2.37;;;;;;;;;;10303722;28;20278;-72
2023/06/27 21:37:42;;;;;;;3.33;1.90;;;;;;;;;;10311123;28;20065;-72
2023/06/27 21:42:43;;;;;;;2.93;2.00;;;;;;;;;;10314169;28;20098;-72
2023/06/27 21:47:43;;;;;;;3.20;2.00;;;;;;;;;;10300094;28;20313;-71
2023/06/27 21:52:44;;;;;;;2.93;1.80;;;;;;;;;;10308974;28;20050;-72
2023/06/27 21:57:44;;;;;;;2.23;1.40;;;;;;;;;;10307230;28;20088;-72
2023/06/27 22:02:50;;;;;;;2.50;1.83;;;;;;;;;;10301908;28;20941;-74
2023/06/27 22:07:50;;;;;;;3.15;1.70;;;;;;;;;;10309041;28;20046;-73
2023/06/27 22:12:51;;;;;;;3.25;1.98;;;;;;;;;;10307564;28;20050;-72
2023/06/27 22:17:51;;;;;;;2.38;1.73;;;;;;;;;;10311454;28;20137;-72
2023/06/27 22:22:51;;;;;;;1.90;1.70;;;;;;;;;;10307940;28;20069;-71
2023/06/27 22:27:53;;;;;;;1.52;1.42;;;;;;;;;;10298712;28;20054;-72
2023/06/27 22:32:53;;;;;;;2.90;1.90;;;;;;;;;;10311709;28;20709;-72
2023/06/27 22:37:54;;;;;;;2.90;1.90;;;;;;;;;;10303080;28;20062;-72
2023/06/27 22:42:54;;;;;;;3.00;1.87;;;;;;;;;;10301774;28;20046;-72
2023/06/27 22:47:54;;;;;;;1.77;1.63;;;;;;;;;;10305473;28;20470;-73
2023/06/27 22:52:56;;;;;;;2.47;1.73;;;;;;;;;;10291179;28;20061;-72
2023/06/27 22:57:56;;;;;;;2.33;1.70;;;;;;;;;;10305079;28;20063;-73
2023/06/27 23:02:56;;;;;;;2.83;1.80;;;;;;;;;;10306885;28;20045;-74
2023/06/27 23:07:57;;;;;;;4.63;2.10;;;;;;;;;;10304077;28;20549;-72
2023/06/27 23:12:57;;;;;;;2.13;1.92;;;;;;;;;;10304764;28;20042;-72
2023/06/27 23:17:59;;;;;;;3.33;2.03;;;;;;;;;;10303066;28;20891;-72
2023/06/27 23:22:59;;;;;;;2.70;1.98;;;;;;;;;;10296259;28;20077;-73
2023/06/27 23:28:00;;;;;;;4.27;2.40;;;;;;;;;;10302738;28;20034;-73
2023/06/27 23:33:01;;;;;;;4.43;2.78;;;;;;;;;;10304409;28;20081;-70
2023/06/27 23:38:02;;;;;;;3.13;2.45;;;;;;;;;;10297099;28;20062;-71
2023/06/27 23:43:02;;;;;;;4.05;2.10;;;;;;;;;;10302924;28;20563;-70
2023/06/27 23:48:03;;;;;;;4.13;2.77;;;;;;;;;;10301525;28;20048;-73
2023/06/27 23:53:04;;;;;;;4.05;2.55;;;;;;;;;;10296132;28;20084;-71
2023/06/27 23:58:04;;;;;;;3.00;2.57;;;;;;;;;;10307528;28;20549;-72
